Airfield :
LOGIN :

Register | Disclaimer

   EN    FR    IT 

 










Legend :    VFR   Marginal VFR   IFR   Intensive IFR   Very Intensive IFR
Visi :
Ceiling :
>= 8 km
>= 3000ft
5 to 8 km
1000 to 3000 ft
1500m to 5 km
500 to 1000 ft
800 to 1500m
200 to 500 ft
< 800m
< 200 ft
Symbols :   Thunderstorms  Fog  Heavy snow  Heavy precipitations  Wind > 20 kt
SIGMETs :     Misc.  Thunderstorms  Icing  Turbulence  Mountain Waves  Volcanic Ashes







- Airport Elevation : 124 ft
- IATA code : NHT
- Download approach charts


EGWU - RAF Northolt

CURRENT METAR :
  • 191150Z 15010KT 7000 HZ BKN012 BKN060 17/14 Q1002 BECMG 9999 NSW BKN015

EXPIRED METARs :
  • 191138Z 14010KT 7000 HZ SCT012 SCT060 17/15 Q1002 GRN NOSIG
  • 191108Z 12009KT 4500 HZ FEW008 SCT060 BKN120 17/15 Q1003 GRN TEMPO 9999 NSW SCT010 GRN
  • 191050Z 13006KT 4500 BR SCT005 BKN060 17/16 Q1003 YLO1 BECMG 9999 NSW BKN007 GRN
  • 190950Z 10005KT 3700 -DZ BKN005 16/15 Q1004 YLO1 BECMG 9999 NSW BKN007 GRN

TAF AMD TAF EGWU
Valid from the 19 at 12:00 until the 20 at 06:00 UTC


191134Z 1912/2006 16008KT 7000 HZ FEW010 SCT050
BECMG 1912/1914 9999 NSW BKN012
BECMG 1916/1918 FEW018
TEMPO 1920/2006 18016G26KT 6000 RA SCT012
No reported NOTAMs for that airfield.



MET'MAP, your aeronautical weather chart ! - Copyright ORBIFLY December 2007 - Disclaimer

ORBIFLY MET'MAP TEAM :

Programming & Development : Alexandra Zaïnal
Concept & Development : Baudouin d'Aumeries
Co-Development & Prog : Marc-Olivier Méhu
Technical & hardware support : Manuel Goepfert

Contact : metmap@orbifly.com




SOURCES & CREDITS :

   NOAA